Time;durP1;ratioP1;P1;durP2;ratioP2;P2;SDS_P1;SDS_P2;PMS_P1;PMS_P2;Temp;Humidity;BMP_temperature;BMP_pressure;BME280_temperature;BME280_humidity;BME280_pressure;Samples;Min_cycle;Max_cycle;Signal;HPM_P1;HPM_P2
2024/04/24 00:00:45;;;;;;;;;;;;;;;5.73;60.64;97423.94;5484552;26;20356;-72
2024/04/24 00:03:36;;;;;;;;;;;;;;;5.66;61.06;97414.63;5467493;26;19935;-73
2024/04/24 00:06:29;;;;;;;;;;;;;;;5.67;61.35;97405.44;5451051;26;19941;-75
2024/04/24 00:09:18;;;;;;;;;;;;;;;5.65;61.34;97407.63;5430766;26;19963;-73
2024/04/24 00:12:08;;;;;;;;;;;;;;;5.61;61.38;97407.41;5453478;26;19932;-78
2024/04/24 00:14:59;;;;;;;;;;;;;;;5.58;60.93;97401.78;5452285;26;19928;-75
2024/04/24 00:17:48;;;;;;;;;;;;;;;5.55;61.45;97405.88;5480659;26;19928;-74
2024/04/24 00:20:39;;;;;;;;;;;;;;;5.58;61.45;97391.81;5451449;26;19928;-71
2024/04/24 00:23:32;;;;;;;;;;;;;;;5.58;61.34;97385.63;5474584;26;19927;-71
2024/04/24 00:26:21;;;;;;;;;;;;;;;5.56;61.41;97388.63;5475374;26;20376;-71
2024/04/24 00:29:11;;;;;;;;;;;;;;;5.48;61.86;97381.16;5460184;26;19997;-71
2024/04/24 00:32:05;;;;;;;;;;;;;;;5.43;62.09;97384.75;5447712;26;19967;-71
2024/04/24 00:34:55;;;;;;;;;;;;;;;5.35;62.33;97388.09;5472803;26;20346;-73
2024/04/24 00:37:45;;;;;;;;;;;;;;;5.23;62.51;97385.81;5450821;26;19997;-73
2024/04/24 00:40:41;;;;;;;;;;;;;;;5.20;62.56;97378.31;5475407;26;20423;-75
2024/04/24 00:43:31;;;;;;;;;;;;;;;5.10;62.96;97373.06;5460547;26;20121;-74
2024/04/24 00:46:23;;;;;;;;;;;;;;;5.06;63.08;97376.59;5508497;26;19927;-74
2024/04/24 00:49:13;;;;;;;;;;;;;;;5.10;62.73;97377.63;5453843;26;20324;-74
2024/04/24 00:52:03;;;;;;;;;;;;;;;5.07;63.25;97376.34;5473306;26;19935;-74
2024/04/24 00:54:52;;;;;;;;;;;;;;;5.06;63.21;97374.75;5443623;26;19936;-74
2024/04/24 00:57:45;;;;;;;;;;;;;;;5.03;63.53;97385.28;5473548;26;19928;-74
2024/04/24 01:00:35;;;;;;;;;;;;;;;5.00;62.76;97389.34;5431795;26;19943;-73
2024/04/24 01:03:27;;;;;;;;;;;;;;;4.99;63.39;97371.59;5423725;26;19929;-73
2024/04/24 01:06:17;;;;;;;;;;;;;;;4.91;63.58;97369.53;5474675;26;19928;-74
2024/04/24 01:09:07;;;;;;;;;;;;;;;4.97;62.38;97371.09;5475393;26;19936;-74
2024/04/24 01:11:56;;;;;;;;;;;;;;;5.01;62.75;97369.44;5466799;26;19928;-74
2024/04/24 01:14:51;;;;;;;;;;;;;;;5.03;62.05;97366.44;5500021;25;19935;-74
2024/04/24 01:17:41;;;;;;;;;;;;;;;5.04;62.24;97366.13;5431217;26;20004;-73
2024/04/24 01:20:31;;;;;;;;;;;;;;;4.95;62.05;97359.78;5460002;26;19928;-73
2024/04/24 01:23:25;;;;;;;;;;;;;;;5.01;62.24;97355.97;5468525;26;19936;-71
2024/04/24 01:26:18;;;;;;;;;;;;;;;4.94;61.66;97353.59;5480976;26;19928;-71
2024/04/24 01:29:10;;;;;;;;;;;;;;;4.94;62.01;97358.19;5476874;26;20362;-72
2024/04/24 01:32:00;;;;;;;;;;;;;;;4.88;61.94;97352.06;5458032;26;20374;-72
2024/04/24 01:34:50;;;;;;;;;;;;;;;4.86;62.77;97353.44;5453212;26;19997;-73
2024/04/24 01:37:40;;;;;;;;;;;;;;;4.88;62.90;97349.38;5469339;26;19927;-72
2024/04/24 01:40:30;;;;;;;;;;;;;;;4.88;62.71;97348.56;5465431;26;19929;-71
2024/04/24 01:43:20;;;;;;;;;;;;;;;4.89;62.82;97350.97;5469721;26;19927;-73
2024/04/24 01:46:12;;;;;;;;;;;;;;;4.79;63.27;97347.59;5453885;26;19928;-73
2024/04/24 01:49:06;;;;;;;;;;;;;;;4.76;63.31;97345.50;5470740;26;19928;-74
2024/04/24 01:51:57;;;;;;;;;;;;;;;4.80;62.59;97339.25;5470867;26;19928;-73
2024/04/24 01:54:47;;;;;;;;;;;;;;;4.65;62.94;97337.53;5448193;26;19952;-74
2024/04/24 01:57:37;;;;;;;;;;;;;;;4.64;63.56;97330.56;5479764;26;20612;-74
2024/04/24 02:00:27;;;;;;;;;;;;;;;4.59;64.26;97335.19;5460652;26;19929;-73
2024/04/24 02:03:42;;;;;;;;;;;;;;;4.63;63.57;97328.94;5460462;26;19936;-73
2024/04/24 02:06:35;;;;;;;;;;;;;;;4.44;64.13;97325.41;5460013;26;19955;-73
2024/04/24 02:09:25;;;;;;;;;;;;;;;4.49;64.12;97328.03;5467986;26;19930;-74
2024/04/24 02:12:15;;;;;;;;;;;;;;;4.36;64.05;97324.13;5469803;26;19928;-73
2024/04/24 02:15:06;;;;;;;;;;;;;;;4.34;64.67;97325.50;5456663;26;19961;-73
2024/04/24 02:17:56;;;;;;;;;;;;;;;4.40;64.18;97319.00;5475576;26;20000;-73
2024/04/24 02:20:46;;;;;;;;;;;;;;;4.31;64.59;97321.50;5448489;26;19940;-74
2024/04/24 02:23:41;;;;;;;;;;;;;;;4.40;63.94;97324.38;5469202;26;20008;-73
2024/04/24 02:26:28;;;;;;;;;;;;;;;4.37;64.32;97327.66;5467012;26;19940;-74
2024/04/24 02:29:18;;;;;;;;;;;;;;;4.30;64.44;97321.78;5479107;26;20411;-73
2024/04/24 02:32:08;;;;;;;;;;;;;;;4.26;64.59;97328.81;5463768;26;19992;-74
2024/04/24 02:34:58;;;;;;;;;;;;;;;4.17;64.99;97324.06;5476035;26;20696;-72
2024/04/24 02:37:48;;;;;;;;;;;;;;;4.21;64.83;97327.00;5454119;26;20304;-72
2024/04/24 02:40:40;;;;;;;;;;;;;;;4.30;64.80;97313.72;5457083;26;19956;-72
2024/04/24 02:43:30;;;;;;;;;;;;;;;4.27;64.17;97317.78;5468175;26;19935;-73
2024/04/24 02:46:20;;;;;;;;;;;;;;;4.17;64.58;97317.88;5479156;26;19940;-73
2024/04/24 02:49:10;;;;;;;;;;;;;;;4.28;63.98;97326.66;5451395;26;19937;-72
2024/04/24 02:52:00;;;;;;;;;;;;;;;4.35;63.82;97325.22;5457724;26;19948;-73
2024/04/24 02:54:51;;;;;;;;;;;;;;;4.39;62.96;97318.19;5469612;26;19939;-71
2024/04/24 02:57:44;;;;;;;;;;;;;;;4.34;62.54;97314.75;5459769;26;19939;-75
2024/04/24 03:00:34;;;;;;;;;;;;;;;4.47;61.17;97314.06;5464290;26;20267;-76
2024/04/24 03:03:24;;;;;;;;;;;;;;;4.56;59.80;97315.03;5472807;26;19940;-77
2024/04/24 03:06:14;;;;;;;;;;;;;;;4.62;58.49;97313.88;5466668;26;19928;-72
2024/04/24 03:09:04;;;;;;;;;;;;;;;4.64;56.64;97310.94;5468763;26;19942;-71
2024/04/24 03:11:54;;;;;;;;;;;;;;;4.55;56.39;97305.38;5466502;26;20013;-71
2024/04/24 03:14:47;;;;;;;;;;;;;;;4.60;56.22;97308.00;5460639;26;19993;-72
2024/04/24 03:17:38;;;;;;;;;;;;;;;4.56;55.61;97309.66;5469845;26;19996;-71
2024/04/24 03:20:28;;;;;;;;;;;;;;;4.58;55.53;97298.59;5460202;26;19971;-71
2024/04/24 03:23:18;;;;;;;;;;;;;;;4.59;55.46;97301.03;5447564;26;19934;-71
2024/04/24 03:26:08;;;;;;;;;;;;;;;4.60;54.56;97301.81;5461683;26;19928;-71
2024/04/24 03:29:00;;;;;;;;;;;;;;;4.55;54.69;97294.63;5468425;26;19928;-71
2024/04/24 03:31:52;;;;;;;;;;;;;;;4.55;55.10;97283.84;5463577;26;19940;-71
2024/04/24 03:34:43;;;;;;;;;;;;;;;4.55;55.39;97280.38;5461339;26;19940;-71
2024/04/24 03:37:36;;;;;;;;;;;;;;;4.52;56.01;97278.25;5434451;26;19929;-71
2024/04/24 03:40:27;;;;;;;;;;;;;;;4.50;56.00;97273.16;5461162;26;19928;-71
2024/04/24 03:43:18;;;;;;;;;;;;;;;4.50;56.02;97275.03;5470204;26;20360;-71
2024/04/24 03:46:08;;;;;;;;;;;;;;;4.39;59.29;97277.06;5451933;26;19944;-71
2024/04/24 03:49:00;;;;;;;;;;;;;;;4.40;59.97;97276.75;5479280;26;20367;-71
2024/04/24 03:51:52;;;;;;;;;;;;;;;4.42;60.63;97273.78;5464963;26;19997;-70
2024/04/24 03:54:42;;;;;;;;;;;;;;;4.29;61.33;97271.78;5457981;26;25257;-70
2024/04/24 03:57:32;;;;;;;;;;;;;;;4.28;61.44;97286.31;5466678;26;19947;-71
2024/04/24 04:00:21;;;;;;;;;;;;;;;4.30;60.99;97282.25;5455647;26;19928;-71
2024/04/24 04:03:12;;;;;;;;;;;;;;;4.31;61.60;97285.72;5448127;26;20291;-74
2024/04/24 04:06:05;;;;;;;;;;;;;;;4.29;61.83;97280.66;5474265;26;19936;-71
2024/04/24 04:08:55;;;;;;;;;;;;;;;4.33;62.06;97286.28;5482319;26;19935;-70
2024/04/24 04:11:45;;;;;;;;;;;;;;;4.40;61.22;97281.34;5483286;26;19940;-73
2024/04/24 04:14:35;;;;;;;;;;;;;;;4.45;59.47;97279.38;5476763;26;20000;-71
2024/04/24 04:17:25;;;;;;;;;;;;;;;4.52;58.02;97287.09;5434748;26;19936;-70
2024/04/24 04:20:15;;;;;;;;;;;;;;;4.55;57.40;97275.78;5456592;26;19955;-70
2024/04/24 04:23:08;;;;;;;;;;;;;;;4.61;56.18;97271.13;5457894;26;19943;-70
2024/04/24 04:25:58;;;;;;;;;;;;;;;4.67;55.52;97273.47;5456732;26;19935;-70
2024/04/24 04:28:48;;;;;;;;;;;;;;;4.64;54.32;97266.00;5482192;26;19927;-71
2024/04/24 04:31:38;;;;;;;;;;;;;;;4.69;54.87;97260.56;5470761;26;19932;-70
2024/04/24 04:34:28;;;;;;;;;;;;;;;4.75;54.45;97255.09;5489198;26;19960;-74
2024/04/24 04:37:18;;;;;;;;;;;;;;;4.82;54.19;97255.53;5460953;26;19927;-70
2024/04/24 04:40:10;;;;;;;;;;;;;;;4.88;54.60;97254.38;5470933;26;19943;-75
2024/04/24 04:43:01;;;;;;;;;;;;;;;4.82;53.68;97244.78;5475664;26;20302;-76
2024/04/24 04:45:50;;;;;;;;;;;;;;;4.95;53.27;97252.09;5475976;26;20404;-72
2024/04/24 04:48:40;;;;;;;;;;;;;;;4.96;53.47;97259.91;5479724;26;20368;-72
2024/04/24 04:51:30;;;;;;;;;;;;;;;5.05;53.32;97251.97;5479463;26;20052;-74
2024/04/24 04:54:21;;;;;;;;;;;;;;;5.07;52.92;97257.09;5473800;26;19928;-74
2024/04/24 04:57:13;;;;;;;;;;;;;;;5.09;52.77;97255.69;5447023;26;19997;-77
2024/04/24 05:00:03;;;;;;;;;;;;;;;5.08;51.96;97254.09;5455580;26;19928;-74
2024/04/24 05:02:53;;;;;;;;;;;;;;;5.09;51.79;97254.88;5442996;26;19932;-76
2024/04/24 05:05:44;;;;;;;;;;;;;;;5.05;51.38;97257.34;5474170;26;19940;-72
2024/04/24 05:08:34;;;;;;;;;;;;;;;4.95;50.98;97255.63;5477778;26;19927;-70
2024/04/24 05:11:24;;;;;;;;;;;;;;;4.92;51.68;97255.41;5459077;26;19978;-73
2024/04/24 05:14:16;;;;;;;;;;;;;;;4.91;51.66;97261.88;5473538;26;20362;-74
2024/04/24 05:17:06;;;;;;;;;;;;;;;4.85;51.85;97255.78;5464038;26;19928;-70
2024/04/24 05:19:56;;;;;;;;;;;;;;;4.88;51.54;97254.38;5472861;26;19939;-73
2024/04/24 05:22:50;;;;;;;;;;;;;;;4.94;51.75;97242.44;5493482;26;19996;-71
2024/04/24 05:25:40;;;;;;;;;;;;;;;5.00;51.72;97246.66;5473565;26;19937;-69
2024/04/24 05:31:44;;;;;;;;;;;;;;;5.19;51.11;97236.69;5455770;26;19929;-71
2024/04/24 05:34:34;;;;;;;;;;;;;;;5.29;50.58;97238.44;5482153;26;19941;-70
2024/04/24 05:37:23;;;;;;;;;;;;;;;5.38;50.54;97236.69;5485157;26;19968;-70
2024/04/24 05:40:14;;;;;;;;;;;;;;;5.45;50.17;97234.41;5460570;26;20385;-72
2024/04/24 05:43:06;;;;;;;;;;;;;;;5.54;50.55;97239.91;5472270;26;20083;-70
2024/04/24 05:45:58;;;;;;;;;;;;;;;5.61;50.26;97232.25;5488442;26;19976;-69
2024/04/24 05:48:50;;;;;;;;;;;;;;;5.59;49.74;97220.94;5483094;26;19938;-71
2024/04/24 05:51:41;;;;;;;;;;;;;;;5.82;49.93;97224.63;5489513;26;19934;-72
2024/04/24 05:54:31;;;;;;;;;;;;;;;5.89;49.75;97224.22;5486426;26;19974;-72
2024/04/24 05:57:23;;;;;;;;;;;;;;;5.98;50.16;97219.78;5473232;26;19940;-73
2024/04/24 06:00:16;;;;;;;;;;;;;;;5.98;49.04;97212.47;5465956;26;19939;-72
2024/04/24 06:03:06;;;;;;;;;;;;;;;5.92;48.63;97210.19;5617840;21;20431;-57
2024/04/24 06:05:59;;;;;;;;;;;;;;;5.86;48.96;97211.31;5417493;26;19932;-55
2024/04/24 06:09:14;;;;;;;;;;;;;;;5.84;49.06;97216.22;5389381;26;19940;-57
2024/04/24 06:12:08;;;;;;;;;;;;;;;5.95;48.45;97213.06;5397561;26;19936;-56
2024/04/24 06:14:59;;;;;;;;;;;;;;;5.92;48.28;97219.06;5401980;26;19936;-56
2024/04/24 06:17:49;;;;;;;;;;;;;;;5.99;48.74;97221.38;5407577;26;20386;-56
2024/04/24 06:20:41;;;;;;;;;;;;;;;6.00;48.51;97228.34;5410030;26;19960;-56
2024/04/24 06:23:33;;;;;;;;;;;;;;;6.02;48.17;97231.56;5394654;26;20001;-56
2024/04/24 06:26:23;;;;;;;;;;;;;;;6.17;47.89;97233.94;5406787;26;19941;-55
2024/04/24 06:29:13;;;;;;;;;;;;;;;6.13;48.55;97235.66;5410895;26;20358;-55
2024/04/24 06:32:02;;;;;;;;;;;;;;;6.15;47.98;97232.66;5409153;26;20267;-56
2024/04/24 06:34:53;;;;;;;;;;;;;;;5.99;48.64;97227.56;5490932;21;19928;-89
2024/04/24 06:37:43;;;;;;;;;;;;;;;6.05;48.88;97220.16;5466989;26;19928;-88
2024/04/24 06:40:36;;;;;;;;;;;;;;;6.24;48.08;97225.50;5464295;26;19935;-90
2024/04/24 06:43:25;;;;;;;;;;;;;;;6.52;48.11;97215.47;5473164;26;20620;-88
2024/04/24 06:46:15;;;;;;;;;;;;;;;6.72;47.94;97215.03;5478455;26;20431;-88
2024/04/24 06:49:05;;;;;;;;;;;;;;;6.74;46.67;97223.63;5476632;26;19932;-89
2024/04/24 06:51:57;;;;;;;;;;;;;;;6.53;46.19;97212.47;5473668;26;19961;-88
2024/04/24 06:54:46;;;;;;;;;;;;;;;6.76;46.69;97209.81;5487946;26;19927;-88
2024/04/24 06:57:39;;;;;;;;;;;;;;;6.65;46.25;97216.53;5462356;26;19932;-87
2024/04/24 07:00:30;;;;;;;;;;;;;;;6.75;46.50;97225.22;5479843;26;20425;-88
2024/04/24 07:03:20;;;;;;;;;;;;;;;6.74;46.52;97218.22;5474020;26;19936;-87
2024/04/24 07:06:10;;;;;;;;;;;;;;;6.63;46.91;97216.84;5456691;26;19928;-92
2024/04/24 07:09:00;;;;;;;;;;;;;;;6.80;46.32;97208.13;5461536;26;19968;-92
2024/04/24 07:11:50;;;;;;;;;;;;;;;6.91;46.32;97208.69;5464886;26;19996;-91
2024/04/24 07:14:44;;;;;;;;;;;;;;;6.90;45.69;97204.41;5487283;26;19935;-92
2024/04/24 07:17:34;;;;;;;;;;;;;;;7.07;46.26;97209.94;5437100;26;20272;-92
2024/04/24 07:20:24;;;;;;;;;;;;;;;7.21;46.07;97209.91;5464499;26;19965;-91
2024/04/24 07:23:15;;;;;;;;;;;;;;;7.16;46.59;97202.72;5464760;26;19928;-92
2024/04/24 07:26:06;;;;;;;;;;;;;;;7.30;46.51;97203.47;5456218;26;19935;-91
2024/04/24 07:28:56;;;;;;;;;;;;;;;7.28;46.45;97199.44;5466574;26;19929;-92
2024/04/24 07:31:48;;;;;;;;;;;;;;;7.34;46.43;97190.13;5484531;26;19932;-93
2024/04/24 07:34:38;;;;;;;;;;;;;;;7.50;46.01;97193.25;5490394;26;20337;-92
2024/04/24 07:37:28;;;;;;;;;;;;;;;7.39;46.29;97195.41;5479259;26;20288;-91
2024/04/24 07:40:18;;;;;;;;;;;;;;;7.43;45.79;97188.28;5455535;26;19935;-90
2024/04/24 07:43:13;;;;;;;;;;;;;;;7.13;46.37;97192.50;5454309;26;19935;-91
2024/04/24 07:46:04;;;;;;;;;;;;;;;7.33;46.13;97192.03;5456747;26;19932;-90
2024/04/24 07:48:56;;;;;;;;;;;;;;;7.39;45.93;97192.69;5470031;26;19937;-92
2024/04/24 07:51:47;;;;;;;;;;;;;;;7.35;46.62;97197.13;5485315;26;19935;-93
2024/04/24 07:54:37;;;;;;;;;;;;;;;7.23;46.11;97196.88;5451158;26;19940;-91
2024/04/24 07:57:27;;;;;;;;;;;;;;;7.22;46.69;97200.69;5452168;26;19940;-92
2024/04/24 08:00:17;;;;;;;;;;;;;;;6.90;47.20;97199.78;5449535;26;19959;-91
2024/04/24 08:03:08;;;;;;;;;;;;;;;7.02;47.58;97196.56;5445481;26;19996;-92
2024/04/24 08:06:01;;;;;;;;;;;;;;;7.07;47.86;97207.25;5475015;26;19928;-94
2024/04/24 08:08:51;;;;;;;;;;;;;;;7.12;48.28;97223.31;5468365;26;19928;-91
2024/04/24 08:11:45;;;;;;;;;;;;;;;6.95;48.95;97213.19;5438641;26;20006;-91
2024/04/24 08:14:34;;;;;;;;;;;;;;;6.91;49.47;97206.78;5475987;26;19935;-93
2024/04/24 08:17:25;;;;;;;;;;;;;;;7.00;49.82;97198.78;5452217;26;20055;-93
2024/04/24 08:20:15;;;;;;;;;;;;;;;7.07;50.04;97205.34;5467507;26;19935;-93
2024/04/24 08:23:07;;;;;;;;;;;;;;;7.14;49.66;97199.53;5438383;26;20399;-93
2024/04/24 08:26:02;;;;;;;;;;;;;;;7.08;49.61;97192.63;5462687;26;20376;-94
2024/04/24 08:28:53;;;;;;;;;;;;;;;7.18;49.17;97189.69;5468793;26;20057;-92
2024/04/24 08:31:43;;;;;;;;;;;;;;;7.07;48.33;97189.13;5463460;26;19944;-94
2024/04/24 08:34:34;;;;;;;;;;;;;;;6.98;47.88;97196.38;5468418;26;19927;-93
2024/04/24 08:37:28;;;;;;;;;;;;;;;6.92;48.25;97194.06;5476495;26;19974;-94
2024/04/24 08:40:22;;;;;;;;;;;;;;;6.85;48.51;97196.41;5461868;26;19934;-93
2024/04/24 08:43:16;;;;;;;;;;;;;;;6.87;48.77;97189.63;5442793;26;19940;-95
2024/04/24 08:46:08;;;;;;;;;;;;;;;7.03;49.09;97195.44;5446452;26;19945;-95
2024/04/24 08:48:59;;;;;;;;;;;;;;;7.06;48.17;97192.13;5481144;26;19928;-93
2024/04/24 08:51:51;;;;;;;;;;;;;;;7.06;47.85;97189.44;5464673;26;20289;-95
2024/04/24 08:54:50;;;;;;;;;;;;;;;6.92;47.79;97192.19;5484601;26;19932;-94
2024/04/24 08:57:49;;;;;;;;;;;;;;;6.86;48.22;97192.59;5483051;26;19928;-92
2024/04/24 09:00:41;;;;;;;;;;;;;;;7.00;48.65;97190.66;5445857;26;19937;-93
2024/04/24 09:03:32;;;;;;;;;;;;;;;7.07;48.24;97193.72;5466616;26;19928;-93
2024/04/24 09:06:23;;;;;;;;;;;;;;;7.00;47.87;97179.88;5453835;26;19928;-94
2024/04/24 09:09:13;;;;;;;;;;;;;;;6.91;47.73;97184.38;5460569;26;19929;-94
2024/04/24 09:12:05;;;;;;;;;;;;;;;6.94;48.03;97183.78;5469716;25;19920;-92
2024/04/24 09:14:59;;;;;;;;;;;;;;;6.85;48.04;97182.91;5473969;26;19935;-93
2024/04/24 09:17:50;;;;;;;;;;;;;;;6.76;48.30;97185.53;5468417;26;19935;-95
2024/04/24 09:20:42;;;;;;;;;;;;;;;6.72;48.58;97181.84;5487006;26;19934;-93
2024/04/24 09:23:32;;;;;;;;;;;;;;;6.52;49.29;97193.88;5486932;26;19941;-92
2024/04/24 09:26:23;;;;;;;;;;;;;;;6.43;49.64;97191.09;5464732;26;19962;-93
2024/04/24 09:29:14;;;;;;;;;;;;;;;6.40;50.19;97190.91;5446987;26;20356;-93
2024/04/24 09:32:12;;;;;;;;;;;;;;;6.35;50.76;97196.41;5466458;26;20373;-93
2024/04/24 09:35:03;;;;;;;;;;;;;;;6.35;50.94;97193.72;5460805;26;19940;-93
2024/04/24 09:37:57;;;;;;;;;;;;;;;6.38;51.52;97209.28;5462196;26;19932;-93
2024/04/24 09:40:47;;;;;;;;;;;;;;;6.25;52.51;97198.19;5471304;26;19946;-91
2024/04/24 09:43:38;;;;;;;;;;;;;;;6.21;53.75;97202.59;5453339;26;19973;-93
2024/04/24 09:46:31;;;;;;;;;;;;;;;6.15;54.46;97198.41;5458774;26;19928;-92
2024/04/24 09:49:24;;;;;;;;;;;;;;;6.17;54.67;97193.50;5478677;26;19928;-93
2024/04/24 09:52:16;;;;;;;;;;;;;;;6.18;54.63;97189.72;5444647;26;19938;-92
2024/04/24 09:55:11;;;;;;;;;;;;;;;6.20;54.69;97198.31;5446262;26;19934;-92
2024/04/24 09:58:01;;;;;;;;;;;;;;;6.27;54.29;97197.91;5450547;26;19935;-92
2024/04/24 10:00:52;;;;;;;;;;;;;;;6.25;53.87;97192.81;5469562;26;19974;-91
2024/04/24 10:03:51;;;;;;;;;;;;;;;6.26;54.02;97186.31;5473375;26;19974;-93
2024/04/24 10:06:47;;;;;;;;;;;;;;;6.24;53.94;97191.22;5448350;26;20395;-91
2024/04/24 10:09:37;;;;;;;;;;;;;;;6.32;53.97;97186.22;5447373;26;19961;-91
2024/04/24 10:12:31;;;;;;;;;;;;;;;6.37;53.99;97175.31;5457688;26;20357;-93
2024/04/24 10:15:21;;;;;;;;;;;;;;;6.46;53.73;97184.31;5466632;26;19949;-92
2024/04/24 10:18:13;;;;;;;;;;;;;;;6.36;54.45;97182.59;5470798;26;19928;-92
2024/04/24 10:21:05;;;;;;;;;;;;;;;6.29;54.62;97177.63;5441927;26;20016;-93
2024/04/24 10:23:57;;;;;;;;;;;;;;;6.26;54.94;97177.41;5458226;26;19933;-92
2024/04/24 10:26:49;;;;;;;;;;;;;;;6.35;55.69;97172.13;5451830;26;19928;-93
2024/04/24 10:29:38;;;;;;;;;;;;;;;6.26;54.65;97167.44;5490473;26;19943;-92
2024/04/24 10:32:29;;;;;;;;;;;;;;;6.25;54.49;97165.03;5460060;26;19940;-92
2024/04/24 10:35:20;;;;;;;;;;;;;;;6.27;54.48;97160.94;5474428;26;19928;-93
2024/04/24 10:38:10;;;;;;;;;;;;;;;6.33;54.18;97158.13;5471156;26;20660;-91
2024/04/24 10:41:03;;;;;;;;;;;;;;;6.40;53.71;97167.41;5474711;26;19928;-92
2024/04/24 10:43:53;;;;;;;;;;;;;;;6.26;53.71;97162.03;5458295;26;20636;-91
2024/04/24 10:46:43;;;;;;;;;;;;;;;6.39;53.75;97154.22;5456136;26;19928;-92
2024/04/24 10:49:33;;;;;;;;;;;;;;;6.55;53.45;97150.91;5485688;26;19940;-92
2024/04/24 10:52:23;;;;;;;;;;;;;;;6.59;53.39;97151.06;5460101;26;19956;-93
2024/04/24 10:55:13;;;;;;;;;;;;;;;6.54;53.43;97151.19;5479560;26;20383;-92
2024/04/24 10:58:12;;;;;;;;;;;;;;;6.58;53.79;97138.69;5466877;26;19928;-92
2024/04/24 11:01:07;;;;;;;;;;;;;;;6.72;53.60;97138.66;5446148;26;19952;-91
2024/04/24 11:03:57;;;;;;;;;;;;;;;6.73;53.51;97143.75;5441895;26;19929;-93
2024/04/24 11:06:47;;;;;;;;;;;;;;;6.63;54.14;97137.78;5469586;26;20005;-90
2024/04/24 11:09:38;;;;;;;;;;;;;;;6.71;53.61;97135.16;5451460;26;19927;-92
2024/04/24 11:12:28;;;;;;;;;;;;;;;6.74;54.05;97136.44;5476347;26;19927;-91
2024/04/24 11:15:23;;;;;;;;;;;;;;;6.92;53.84;97143.56;5446394;26;19935;-91
2024/04/24 11:18:13;;;;;;;;;;;;;;;6.94;54.37;97135.19;5471646;26;19928;-92
2024/04/24 11:21:03;;;;;;;;;;;;;;;6.77;54.72;97135.84;5471061;26;19928;-91
2024/04/24 11:23:56;;;;;;;;;;;;;;;6.70;55.50;97135.47;5489566;26;19932;-91
2024/04/24 11:26:46;;;;;;;;;;;;;;;6.73;56.19;97132.97;5480196;26;19960;-91
2024/04/24 11:29:40;;;;;;;;;;;;;;;6.90;56.67;97123.41;5444673;26;20380;-93
2024/04/24 11:32:32;;;;;;;;;;;;;;;7.06;55.91;97124.63;5455521;26;19939;-91
2024/04/24 11:35:23;;;;;;;;;;;;;;;7.06;54.99;97119.22;5482702;26;19928;-88
2024/04/24 11:38:12;;;;;;;;;;;;;;;7.13;55.00;97124.97;5472774;26;19997;-89
2024/04/24 11:41:03;;;;;;;;;;;;;;;7.06;54.90;97116.53;5485938;26;19978;-88
2024/04/24 11:43:53;;;;;;;;;;;;;;;7.17;55.16;97123.25;5478710;26;19932;-88
2024/04/24 11:46:42;;;;;;;;;;;;;;;7.31;54.24;97107.78;5455997;26;19928;-89
2024/04/24 11:49:36;;;;;;;;;;;;;;;7.45;54.16;97112.28;5471019;26;19964;-89
2024/04/24 11:52:26;;;;;;;;;;;;;;;7.42;54.33;97118.34;5473270;26;19935;-87
2024/04/24 11:55:16;;;;;;;;;;;;;;;7.37;54.29;97113.06;5462717;26;19932;-88
2024/04/24 11:58:10;;;;;;;;;;;;;;;7.27;54.12;97106.00;5457948;26;19928;-89
2024/04/24 12:01:00;;;;;;;;;;;;;;;7.34;54.46;97101.75;5481579;26;19996;-88
2024/04/24 12:03:50;;;;;;;;;;;;;;;7.32;54.76;97103.19;5476889;26;20403;-87
2024/04/24 12:06:45;;;;;;;;;;;;;;;7.39;55.31;97097.31;5470760;26;19977;-87
2024/04/24 12:09:38;;;;;;;;;;;;;;;7.52;55.33;97074.81;5480206;26;19928;-89
2024/04/24 12:12:29;;;;;;;;;;;;;;;7.66;54.61;97056.56;5474076;26;20006;-89
2024/04/24 12:15:19;;;;;;;;;;;;;;;7.48;55.58;97046.81;5485295;26;19928;-90
2024/04/24 12:18:08;;;;;;;;;;;;;;;7.85;55.69;97057.13;5475726;26;19934;-90
2024/04/24 12:20:58;;;;;;;;;;;;;;;7.71;55.67;97056.44;5454773;26;19934;-90
2024/04/24 12:23:53;;;;;;;;;;;;;;;7.83;55.52;97064.75;5485156;26;19928;-90
2024/04/24 12:26:43;;;;;;;;;;;;;;;8.04;55.45;97069.56;5478731;26;19948;-90
2024/04/24 12:29:33;;;;;;;;;;;;;;;7.88;54.80;97071.91;5494301;26;19929;-89
2024/04/24 12:32:23;;;;;;;;;;;;;;;8.11;54.58;97064.50;5484815;26;19938;-91
2024/04/24 12:35:13;;;;;;;;;;;;;;;8.25;53.47;97064.34;5450737;26;20274;-91
2024/04/24 12:38:03;;;;;;;;;;;;;;;8.28;52.60;97069.13;5470695;26;19929;-89
2024/04/24 12:40:56;;;;;;;;;;;;;;;8.21;53.01;97074.22;5482355;26;19931;-90
2024/04/24 12:43:46;;;;;;;;;;;;;;;8.20;52.53;97065.28;5463503;26;19928;-92
2024/04/24 12:46:36;;;;;;;;;;;;;;;8.08;53.00;97071.31;5441807;26;19928;-92
2024/04/24 12:49:26;;;;;;;;;;;;;;;8.15;53.14;97073.59;5485034;26;19936;-90
2024/04/24 12:52:16;;;;;;;;;;;;;;;8.24;52.91;97058.16;5483606;26;20260;-91
2024/04/24 12:55:06;;;;;;;;;;;;;;;8.41;52.01;97065.50;5480063;26;20424;-91
2024/04/24 12:57:59;;;;;;;;;;;;;;;8.37;51.32;97061.88;5465055;26;20352;-91
2024/04/24 13:00:52;;;;;;;;;;;;;;;8.33;51.15;97064.38;5467891;26;19940;-91
2024/04/24 13:03:42;;;;;;;;;;;;;;;8.35;50.29;97054.00;5475032;26;19932;-91
2024/04/24 13:06:33;;;;;;;;;;;;;;;8.33;50.99;97056.25;5452702;26;20240;-91
2024/04/24 13:09:23;;;;;;;;;;;;;;;8.35;50.90;97048.59;5474113;26;20376;-90
2024/04/24 13:12:13;;;;;;;;;;;;;;;8.46;51.35;97043.69;5461089;26;19932;-91
2024/04/24 13:15:06;;;;;;;;;;;;;;;8.50;51.27;97049.28;5469026;26;19936;-91
2024/04/24 13:17:57;;;;;;;;;;;;;;;8.51;52.14;97042.75;5460517;26;19940;-91
2024/04/24 13:20:47;;;;;;;;;;;;;;;8.39;52.03;97040.69;5455565;26;19953;-90
2024/04/24 13:23:37;;;;;;;;;;;;;;;8.56;52.24;97037.97;5447435;26;19961;-93
2024/04/24 13:26:28;;;;;;;;;;;;;;;8.40;51.81;97039.56;5435950;26;19929;-92
2024/04/24 13:29:18;;;;;;;;;;;;;;;8.41;51.85;97035.72;5432616;26;19928;-92
2024/04/24 13:32:11;;;;;;;;;;;;;;;8.20;51.25;97021.22;5472379;26;19929;-92
2024/04/24 13:35:01;;;;;;;;;;;;;;;8.22;51.89;97021.72;5466216;26;19932;-92
2024/04/24 13:37:51;;;;;;;;;;;;;;;8.13;50.73;97013.56;5436466;26;19948;-92
2024/04/24 13:40:41;;;;;;;;;;;;;;;8.37;50.65;97007.75;5458213;26;19928;-93
2024/04/24 13:43:31;;;;;;;;;;;;;;;8.19;49.94;97006.88;5446638;26;20299;-92
2024/04/24 13:46:22;;;;;;;;;;;;;;;8.17;49.95;97003.72;5451831;26;20589;-93
2024/04/24 13:49:14;;;;;;;;;;;;;;;8.23;50.39;97007.06;5455851;26;19936;-92
2024/04/24 13:52:04;;;;;;;;;;;;;;;8.31;51.89;97007.06;5475580;26;20378;-91
2024/04/24 13:54:54;;;;;;;;;;;;;;;8.27;51.38;97006.09;5478109;26;19928;-93
2024/04/24 13:57:44;;;;;;;;;;;;;;;8.17;52.60;97008.34;5463368;26;19996;-92
2024/04/24 14:00:35;;;;;;;;;;;;;;;8.39;53.09;97000.09;5454209;26;19935;-94
2024/04/24 14:03:24;;;;;;;;;;;;;;;8.51;52.41;96994.81;5454903;26;20000;-91
2024/04/24 14:06:18;;;;;;;;;;;;;;;8.55;52.08;96994.97;5460085;26;19935;-91
2024/04/24 14:09:08;;;;;;;;;;;;;;;8.54;50.25;96985.28;5457490;26;19936;-91
2024/04/24 14:11:59;;;;;;;;;;;;;;;8.61;48.61;96982.88;5451011;26;19929;-91
2024/04/24 14:14:49;;;;;;;;;;;;;;;8.58;48.87;96969.97;5460495;26;20316;-91
2024/04/24 14:17:42;;;;;;;;;;;;;;;8.55;49.25;96970.63;5474613;26;19936;-91
2024/04/24 14:20:35;;;;;;;;;;;;;;;8.41;49.05;96970.78;5481020;26;19936;-91
2024/04/24 14:23:28;;;;;;;;;;;;;;;8.45;49.48;96965.53;5476540;26;19936;-92
2024/04/24 14:26:18;;;;;;;;;;;;;;;8.58;49.36;96959.16;5456225;26;19928;-92
2024/04/24 14:29:12;;;;;;;;;;;;;;;8.46;47.82;96964.41;5450816;26;19928;-92
2024/04/24 14:32:03;;;;;;;;;;;;;;;8.28;47.58;96966.31;5458460;26;19939;-92
2024/04/24 14:34:53;;;;;;;;;;;;;;;8.19;46.90;96970.91;5445635;26;19935;-91
2024/04/24 14:37:43;;;;;;;;;;;;;;;8.00;47.10;96974.75;5471248;25;19966;-91
2024/04/24 14:40:35;;;;;;;;;;;;;;;7.86;48.11;96965.97;5464511;26;19928;-91
2024/04/24 14:43:25;;;;;;;;;;;;;;;7.70;52.06;96973.75;5449376;26;19932;-92
2024/04/24 14:46:16;;;;;;;;;;;;;;;7.55;53.98;96988.47;5451057;26;19936;-92
2024/04/24 14:49:06;;;;;;;;;;;;;;;7.35;55.34;96981.78;5459032;26;20395;-92
2024/04/24 14:51:56;;;;;;;;;;;;;;;7.48;55.90;96976.56;5456941;26;19928;-94
2024/04/24 14:54:47;;;;;;;;;;;;;;;7.59;56.08;96980.56;5449121;26;19940;-91
2024/04/24 14:57:40;;;;;;;;;;;;;;;7.66;55.36;96982.78;5448602;26;20350;-92
2024/04/24 15:00:29;;;;;;;;;;;;;;;7.67;54.63;96981.66;5458843;26;19940;-92
2024/04/24 15:03:20;;;;;;;;;;;;;;;7.65;54.59;96981.19;5480812;26;19935;-88
2024/04/24 15:06:10;;;;;;;;;;;;;;;7.63;54.53;96978.81;5480535;26;20512;-88